sensor_id;sensor_type;location;lat;lon;timestamp;P1;durP1;ratioP1;P2;durP2;ratioP2
74519;SDS011;63002;48.134;-1.948;2024-01-06T06:01:52;0.80;;;0.30;;
74519;SDS011;63002;48.134;-1.948;2024-01-06T06:04:17;1.63;;;0.40;;
74519;SDS011;63002;48.134;-1.948;2024-01-06T06:06:44;1.35;;;0.40;;
74519;SDS011;63002;48.134;-1.948;2024-01-06T06:09:09;0.90;;;0.30;;
74519;SDS011;63002;48.134;-1.948;2024-01-06T06:11:35;0.63;;;0.20;;
74519;SDS011;63002;48.134;-1.948;2024-01-06T06:14:01;1.00;;;0.28;;
74519;SDS011;63002;48.134;-1.948;2024-01-06T06:16:28;1.23;;;0.40;;
74519;SDS011;63002;48.134;-1.948;2024-01-06T06:18:54;1.00;;;0.30;;
74519;SDS011;63002;48.134;-1.948;2024-01-06T06:21:20;1.23;;;0.37;;
74519;SDS011;63002;48.134;-1.948;2024-01-06T06:23:46;1.17;;;0.30;;
74519;SDS011;63002;48.134;-1.948;2024-01-06T06:26:11;1.20;;;0.30;;
74519;SDS011;63002;48.134;-1.948;2024-01-06T06:28:38;1.10;;;0.30;;
74519;SDS011;63002;48.134;-1.948;2024-01-06T06:31:03;1.48;;;0.30;;
74519;SDS011;63002;48.134;-1.948;2024-01-06T06:33:29;0.98;;;0.30;;
74519;SDS011;63002;48.134;-1.948;2024-01-06T06:35:55;1.40;;;0.40;;
74519;SDS011;63002;48.134;-1.948;2024-01-06T06:38:21;1.00;;;0.30;;
74519;SDS011;63002;48.134;-1.948;2024-01-06T06:40:46;1.08;;;0.45;;
74519;SDS011;63002;48.134;-1.948;2024-01-06T06:43:13;1.23;;;0.30;;
74519;SDS011;63002;48.134;-1.948;2024-01-06T06:45:39;1.13;;;0.30;;
74519;SDS011;63002;48.134;-1.948;2024-01-06T06:48:05;1.55;;;0.40;;
74519;SDS011;63002;48.134;-1.948;2024-01-06T06:50:31;1.27;;;0.40;;
74519;SDS011;63002;48.134;-1.948;2024-01-06T06:52:57;0.80;;;0.30;;
74519;SDS011;63002;48.134;-1.948;2024-01-06T06:55:23;1.55;;;0.40;;
74519;SDS011;63002;48.134;-1.948;2024-01-06T06:57:49;1.10;;;0.27;;
74519;SDS011;63002;48.134;-1.948;2024-01-06T07:00:15;2.35;;;0.35;;
74519;SDS011;63002;48.134;-1.948;2024-01-06T07:02:42;2.33;;;0.30;;
74519;SDS011;63002;48.134;-1.948;2024-01-06T07:05:08;1.15;;;0.32;;
74519;SDS011;63002;48.134;-1.948;2024-01-06T07:07:34;0.57;;;0.22;;
74519;SDS011;63002;48.134;-1.948;2024-01-06T07:10:02;1.87;;;0.37;;
74519;SDS011;63002;48.134;-1.948;2024-01-06T07:12:30;1.33;;;0.20;;
74519;SDS011;63002;48.134;-1.948;2024-01-06T07:14:56;0.88;;;0.30;;
74519;SDS011;63002;48.134;-1.948;2024-01-06T07:17:23;1.15;;;0.43;;
74519;SDS011;63002;48.134;-1.948;2024-01-06T07:19:49;0.70;;;0.25;;
74519;SDS011;63002;48.134;-1.948;2024-01-06T07:22:15;2.10;;;0.47;;
74519;SDS011;63002;48.134;-1.948;2024-01-06T07:24:41;0.60;;;0.30;;
74519;SDS011;63002;48.134;-1.948;2024-01-06T07:27:07;1.20;;;0.40;;
74519;SDS011;63002;48.134;-1.948;2024-01-06T07:29:33;0.70;;;0.30;;
74519;SDS011;63002;48.134;-1.948;2024-01-06T07:31:58;0.82;;;0.40;;
74519;SDS011;63002;48.134;-1.948;2024-01-06T07:34:24;1.42;;;0.50;;
74519;SDS011;63002;48.134;-1.948;2024-01-06T07:36:50;0.90;;;0.30;;
74519;SDS011;63002;48.134;-1.948;2024-01-06T07:39:16;0.73;;;0.20;;
74519;SDS011;63002;48.134;-1.948;2024-01-06T07:41:42;1.23;;;0.55;;
74519;SDS011;63002;48.134;-1.948;2024-01-06T07:44:07;1.27;;;0.37;;
74519;SDS011;63002;48.134;-1.948;2024-01-06T07:46:33;1.08;;;0.30;;
74519;SDS011;63002;48.134;-1.948;2024-01-06T07:49:02;0.95;;;0.40;;
74519;SDS011;63002;48.134;-1.948;2024-01-06T07:51:27;1.37;;;0.60;;
74519;SDS011;63002;48.134;-1.948;2024-01-06T07:53:53;1.48;;;0.40;;
74519;SDS011;63002;48.134;-1.948;2024-01-06T07:56:19;1.60;;;0.50;;
74519;SDS011;63002;48.134;-1.948;2024-01-06T07:58:45;1.30;;;0.30;;
74519;SDS011;63002;48.134;-1.948;2024-01-06T08:01:10;1.17;;;0.50;;
74519;SDS011;63002;48.134;-1.948;2024-01-06T08:03:36;0.63;;;0.30;;
74519;SDS011;63002;48.134;-1.948;2024-01-06T08:06:02;0.60;;;0.30;;
74519;SDS011;63002;48.134;-1.948;2024-01-06T08:08:28;2.50;;;0.40;;
74519;SDS011;63002;48.134;-1.948;2024-01-06T08:10:54;0.88;;;0.22;;
74519;SDS011;63002;48.134;-1.948;2024-01-06T08:13:19;1.40;;;0.40;;
74519;SDS011;63002;48.134;-1.948;2024-01-06T08:15:45;0.80;;;0.40;;
74519;SDS011;63002;48.134;-1.948;2024-01-06T08:18:11;0.80;;;0.20;;
74519;SDS011;63002;48.134;-1.948;2024-01-06T08:20:37;2.40;;;0.68;;
74519;SDS011;63002;48.134;-1.948;2024-01-06T08:23:02;2.60;;;0.67;;
74519;SDS011;63002;48.134;-1.948;2024-01-06T08:25:28;9.25;;;0.85;;
74519;SDS011;63002;48.134;-1.948;2024-01-06T08:27:54;2.77;;;0.70;;
74519;SDS011;63002;48.134;-1.948;2024-01-06T08:30:20;4.70;;;0.70;;
74519;SDS011;63002;48.134;-1.948;2024-01-06T08:32:45;5.53;;;0.57;;
74519;SDS011;63002;48.134;-1.948;2024-01-06T08:35:11;4.50;;;0.60;;
74519;SDS011;63002;48.134;-1.948;2024-01-06T08:37:37;6.50;;;0.50;;
74519;SDS011;63002;48.134;-1.948;2024-01-06T08:40:03;3.15;;;0.70;;
74519;SDS011;63002;48.134;-1.948;2024-01-06T08:42:29;1.23;;;0.37;;
74519;SDS011;63002;48.134;-1.948;2024-01-06T08:44:55;3.40;;;0.50;;
74519;SDS011;63002;48.134;-1.948;2024-01-06T08:47:21;2.53;;;0.30;;
74519;SDS011;63002;48.134;-1.948;2024-01-06T08:49:46;4.80;;;0.60;;
74519;SDS011;63002;48.134;-1.948;2024-01-06T08:52:12;6.27;;;0.93;;
74519;SDS011;63002;48.134;-1.948;2024-01-06T08:54:38;5.55;;;0.52;;
74519;SDS011;63002;48.134;-1.948;2024-01-06T08:57:04;2.93;;;0.30;;
74519;SDS011;63002;48.134;-1.948;2024-01-06T08:59:29;1.88;;;0.40;;
74519;SDS011;63002;48.134;-1.948;2024-01-06T09:01:55;5.50;;;0.70;;
74519;SDS011;63002;48.134;-1.948;2024-01-06T09:04:21;37.80;;;6.50;;
74519;SDS011;63002;48.134;-1.948;2024-01-06T09:06:47;54.47;;;11.82;;
74519;SDS011;63002;48.134;-1.948;2024-01-06T09:09:13;54.03;;;12.43;;
74519;SDS011;63002;48.134;-1.948;2024-01-06T09:11:39;50.90;;;10.40;;
74519;SDS011;63002;48.134;-1.948;2024-01-06T09:14:05;34.17;;;7.73;;
74519;SDS011;63002;48.134;-1.948;2024-01-06T09:16:30;15.90;;;3.45;;
74519;SDS011;63002;48.134;-1.948;2024-01-06T09:18:56;11.60;;;2.40;;
74519;SDS011;63002;48.134;-1.948;2024-01-06T09:21:22;14.18;;;2.05;;
74519;SDS011;63002;48.134;-1.948;2024-01-06T09:23:48;9.40;;;1.67;;
74519;SDS011;63002;48.134;-1.948;2024-01-06T09:26:14;16.30;;;1.50;;
74519;SDS011;63002;48.134;-1.948;2024-01-06T09:28:41;13.07;;;2.45;;
74519;SDS011;63002;48.134;-1.948;2024-01-06T09:31:07;9.63;;;2.43;;
74519;SDS011;63002;48.134;-1.948;2024-01-06T09:33:32;8.68;;;1.90;;
74519;SDS011;63002;48.134;-1.948;2024-01-06T09:35:59;10.03;;;1.90;;
74519;SDS011;63002;48.134;-1.948;2024-01-06T09:38:29;9.52;;;2.05;;
74519;SDS011;63002;48.134;-1.948;2024-01-06T09:40:54;7.20;;;1.63;;
74519;SDS011;63002;48.134;-1.948;2024-01-06T09:43:21;6.30;;;1.15;;
74519;SDS011;63002;48.134;-1.948;2024-01-06T09:45:48;6.55;;;1.45;;
74519;SDS011;63002;48.134;-1.948;2024-01-06T09:48:30;7.03;;;1.27;;
74519;SDS011;63002;48.134;-1.948;2024-01-06T09:51:03;6.20;;;1.30;;
74519;SDS011;63002;48.134;-1.948;2024-01-06T09:53:33;7.22;;;1.67;;
74519;SDS011;63002;48.134;-1.948;2024-01-06T09:56:04;8.00;;;1.23;;
74519;SDS011;63002;48.134;-1.948;2024-01-06T09:58:30;8.60;;;1.65;;
74519;SDS011;63002;48.134;-1.948;2024-01-06T10:01:00;6.80;;;1.53;;
74519;SDS011;63002;48.134;-1.948;2024-01-06T10:03:26;6.82;;;1.30;;
74519;SDS011;63002;48.134;-1.948;2024-01-06T10:05:52;5.75;;;1.48;;
74519;SDS011;63002;48.134;-1.948;2024-01-06T10:08:20;6.43;;;1.30;;
74519;SDS011;63002;48.134;-1.948;2024-01-06T10:10:45;7.05;;;1.25;;
74519;SDS011;63002;48.134;-1.948;2024-01-06T10:13:11;5.25;;;1.23;;
74519;SDS011;63002;48.134;-1.948;2024-01-06T10:15:41;4.97;;;0.97;;
74519;SDS011;63002;48.134;-1.948;2024-01-06T10:18:07;5.07;;;0.93;;
74519;SDS011;63002;48.134;-1.948;2024-01-06T10:20:33;4.80;;;1.30;;
74519;SDS011;63002;48.134;-1.948;2024-01-06T10:23:03;5.93;;;1.17;;
74519;SDS011;63002;48.134;-1.948;2024-01-06T10:25:30;7.20;;;1.38;;
74519;SDS011;63002;48.134;-1.948;2024-01-06T10:27:56;6.30;;;1.20;;
74519;SDS011;63002;48.134;-1.948;2024-01-06T10:30:25;5.83;;;1.07;;
74519;SDS011;63002;48.134;-1.948;2024-01-06T10:32:51;5.78;;;1.10;;
74519;SDS011;63002;48.134;-1.948;2024-01-06T10:35:17;5.82;;;1.38;;
74519;SDS011;63002;48.134;-1.948;2024-01-06T10:37:43;6.85;;;1.25;;
74519;SDS011;63002;48.134;-1.948;2024-01-06T10:40:11;5.50;;;0.87;;
74519;SDS011;63002;48.134;-1.948;2024-01-06T10:42:38;24.55;;;6.20;;
74519;SDS011;63002;48.134;-1.948;2024-01-06T10:45:08;23.42;;;4.88;;
74519;SDS011;63002;48.134;-1.948;2024-01-06T10:47:36;17.40;;;3.00;;
74519;SDS011;63002;48.134;-1.948;2024-01-06T10:50:02;9.57;;;1.95;;
74519;SDS011;63002;48.134;-1.948;2024-01-06T10:52:29;6.83;;;1.23;;
74519;SDS011;63002;48.134;-1.948;2024-01-06T10:54:55;4.95;;;1.10;;
74519;SDS011;63002;48.134;-1.948;2024-01-06T10:57:22;6.40;;;1.10;;
74519;SDS011;63002;48.134;-1.948;2024-01-06T10:59:52;6.68;;;1.15;;
74519;SDS011;63002;48.134;-1.948;2024-01-06T11:02:18;5.03;;;1.20;;
74519;SDS011;63002;48.134;-1.948;2024-01-06T11:04:47;5.40;;;0.97;;
74519;SDS011;63002;48.134;-1.948;2024-01-06T11:07:15;6.53;;;1.00;;
74519;SDS011;63002;48.134;-1.948;2024-01-06T11:10:02;4.95;;;1.30;;
74519;SDS011;63002;48.134;-1.948;2024-01-06T11:12:32;5.75;;;1.20;;
74519;SDS011;63002;48.134;-1.948;2024-01-06T11:14:58;7.45;;;1.00;;
74519;SDS011;63002;48.134;-1.948;2024-01-06T11:20:28;7.28;;;1.00;;
74519;SDS011;63002;48.134;-1.948;2024-01-06T11:22:54;4.63;;;0.87;;
74519;SDS011;63002;48.134;-1.948;2024-01-06T11:25:21;4.95;;;1.02;;
74519;SDS011;63002;48.134;-1.948;2024-01-06T11:27:48;7.40;;;1.38;;
74519;SDS011;63002;48.134;-1.948;2024-01-06T11:30:21;3.70;;;0.90;;
74519;SDS011;63002;48.134;-1.948;2024-01-06T11:32:48;4.60;;;1.10;;
74519;SDS011;63002;48.134;-1.948;2024-01-06T11:35:20;5.73;;;1.00;;
74519;SDS011;63002;48.134;-1.948;2024-01-06T11:42:47;5.53;;;0.70;;
74519;SDS011;63002;48.134;-1.948;2024-01-06T11:45:21;4.18;;;0.70;;
74519;SDS011;63002;48.134;-1.948;2024-01-06T11:47:47;5.53;;;0.85;;
74519;SDS011;63002;48.134;-1.948;2024-01-06T11:50:16;3.67;;;0.70;;
74519;SDS011;63002;48.134;-1.948;2024-01-06T11:52:42;5.35;;;0.85;;
74519;SDS011;63002;48.134;-1.948;2024-01-06T11:55:08;6.23;;;0.83;;
74519;SDS011;63002;48.134;-1.948;2024-01-06T11:57:34;4.60;;;0.98;;
74519;SDS011;63002;48.134;-1.948;2024-01-06T12:00:00;7.22;;;1.27;;
74519;SDS011;63002;48.134;-1.948;2024-01-06T12:02:29;6.68;;;1.27;;
74519;SDS011;63002;48.134;-1.948;2024-01-06T12:04:54;9.40;;;1.83;;
74519;SDS011;63002;48.134;-1.948;2024-01-06T12:07:20;3.45;;;0.88;;
74519;SDS011;63002;48.134;-1.948;2024-01-06T12:10:00;3.77;;;0.60;;
74519;SDS011;63002;48.134;-1.948;2024-01-06T12:12:26;4.68;;;0.90;;
74519;SDS011;63002;48.134;-1.948;2024-01-06T12:14:52;5.43;;;1.00;;
74519;SDS011;63002;48.134;-1.948;2024-01-06T12:17:19;5.97;;;0.90;;
74519;SDS011;63002;48.134;-1.948;2024-01-06T12:19:46;4.72;;;0.85;;
74519;SDS011;63002;48.134;-1.948;2024-01-06T12:22:13;4.75;;;0.80;;
74519;SDS011;63002;48.134;-1.948;2024-01-06T12:24:42;7.97;;;0.90;;
74519;SDS011;63002;48.134;-1.948;2024-01-06T12:27:08;4.25;;;0.85;;
74519;SDS011;63002;48.134;-1.948;2024-01-06T12:29:37;4.22;;;1.05;;
74519;SDS011;63002;48.134;-1.948;2024-01-06T12:32:04;3.70;;;0.98;;
74519;SDS011;63002;48.134;-1.948;2024-01-06T12:34:31;5.63;;;0.60;;
74519;SDS011;63002;48.134;-1.948;2024-01-06T12:36:56;6.28;;;1.00;;
74519;SDS011;63002;48.134;-1.948;2024-01-06T12:39:23;3.63;;;0.55;;
74519;SDS011;63002;48.134;-1.948;2024-01-06T12:41:54;4.07;;;0.80;;
74519;SDS011;63002;48.134;-1.948;2024-01-06T12:44:20;4.13;;;0.50;;
74519;SDS011;63002;48.134;-1.948;2024-01-06T12:46:46;4.75;;;0.90;;
74519;SDS011;63002;48.134;-1.948;2024-01-06T12:49:12;3.58;;;0.93;;
74519;SDS011;63002;48.134;-1.948;2024-01-06T12:51:38;4.03;;;0.70;;
74519;SDS011;63002;48.134;-1.948;2024-01-06T12:54:04;5.00;;;0.90;;
74519;SDS011;63002;48.134;-1.948;2024-01-06T12:56:30;5.20;;;1.27;;
74519;SDS011;63002;48.134;-1.948;2024-01-06T12:58:56;3.47;;;0.77;;
74519;SDS011;63002;48.134;-1.948;2024-01-06T13:01:22;2.88;;;0.52;;
74519;SDS011;63002;48.134;-1.948;2024-01-06T13:03:47;5.63;;;0.80;;
74519;SDS011;63002;48.134;-1.948;2024-01-06T13:06:13;3.30;;;0.45;;
74519;SDS011;63002;48.134;-1.948;2024-01-06T13:08:41;4.97;;;1.00;;
74519;SDS011;63002;48.134;-1.948;2024-01-06T13:11:08;8.02;;;1.13;;
74519;SDS011;63002;48.134;-1.948;2024-01-06T13:13:34;5.37;;;0.77;;
74519;SDS011;63002;48.134;-1.948;2024-01-06T13:16:00;5.03;;;0.90;;
74519;SDS011;63002;48.134;-1.948;2024-01-06T13:18:30;10.20;;;0.93;;
74519;SDS011;63002;48.134;-1.948;2024-01-06T13:20:56;4.10;;;0.63;;
74519;SDS011;63002;48.134;-1.948;2024-01-06T13:23:21;20.13;;;0.82;;
74519;SDS011;63002;48.134;-1.948;2024-01-06T13:25:47;5.65;;;0.98;;
74519;SDS011;63002;48.134;-1.948;2024-01-06T13:28:13;8.00;;;1.20;;
74519;SDS011;63002;48.134;-1.948;2024-01-06T13:30:40;6.43;;;1.00;;
74519;SDS011;63002;48.134;-1.948;2024-01-06T13:33:07;6.20;;;1.00;;
74519;SDS011;63002;48.134;-1.948;2024-01-06T13:35:35;3.25;;;0.60;;
74519;SDS011;63002;48.134;-1.948;2024-01-06T13:38:02;3.97;;;0.80;;
74519;SDS011;63002;48.134;-1.948;2024-01-06T13:40:29;5.90;;;0.88;;
74519;SDS011;63002;48.134;-1.948;2024-01-06T13:42:55;7.13;;;1.13;;
74519;SDS011;63002;48.134;-1.948;2024-01-06T13:45:21;5.50;;;0.63;;
74519;SDS011;63002;48.134;-1.948;2024-01-06T13:47:47;7.10;;;0.65;;
74519;SDS011;63002;48.134;-1.948;2024-01-06T13:50:13;5.30;;;0.73;;
74519;SDS011;63002;48.134;-1.948;2024-01-06T13:52:41;7.40;;;0.90;;
74519;SDS011;63002;48.134;-1.948;2024-01-06T13:55:07;4.82;;;0.90;;
74519;SDS011;63002;48.134;-1.948;2024-01-06T13:57:33;5.22;;;0.70;;
74519;SDS011;63002;48.134;-1.948;2024-01-06T13:59:59;6.50;;;0.75;;
74519;SDS011;63002;48.134;-1.948;2024-01-06T14:02:26;3.03;;;0.57;;
74519;SDS011;63002;48.134;-1.948;2024-01-06T14:04:52;6.68;;;0.80;;
74519;SDS011;63002;48.134;-1.948;2024-01-06T14:07:19;4.18;;;0.80;;
74519;SDS011;63002;48.134;-1.948;2024-01-06T14:09:47;4.85;;;0.80;;
74519;SDS011;63002;48.134;-1.948;2024-01-06T14:12:13;3.17;;;0.93;;
74519;SDS011;63002;48.134;-1.948;2024-01-06T14:14:39;4.60;;;0.80;;
74519;SDS011;63002;48.134;-1.948;2024-01-06T14:17:08;4.35;;;0.68;;
74519;SDS011;63002;48.134;-1.948;2024-01-06T14:19:34;4.47;;;0.90;;
74519;SDS011;63002;48.134;-1.948;2024-01-06T14:21:59;3.67;;;0.70;;
74519;SDS011;63002;48.134;-1.948;2024-01-06T14:24:25;4.70;;;0.95;;
74519;SDS011;63002;48.134;-1.948;2024-01-06T14:26:52;3.57;;;0.60;;
74519;SDS011;63002;48.134;-1.948;2024-01-06T14:29:20;5.30;;;0.82;;
74519;SDS011;63002;48.134;-1.948;2024-01-06T14:31:46;4.57;;;0.63;;
74519;SDS011;63002;48.134;-1.948;2024-01-06T14:34:12;5.32;;;0.68;;
74519;SDS011;63002;48.134;-1.948;2024-01-06T14:36:38;3.45;;;0.70;;
74519;SDS011;63002;48.134;-1.948;2024-01-06T14:39:05;3.40;;;0.63;;
74519;SDS011;63002;48.134;-1.948;2024-01-06T14:41:35;2.83;;;0.50;;
74519;SDS011;63002;48.134;-1.948;2024-01-06T14:44:10;2.10;;;0.50;;
74519;SDS011;63002;48.134;-1.948;2024-01-06T14:46:36;4.20;;;0.70;;
74519;SDS011;63002;48.134;-1.948;2024-01-06T14:49:02;4.63;;;0.90;;
74519;SDS011;63002;48.134;-1.948;2024-01-06T14:51:28;7.47;;;0.95;;
74519;SDS011;63002;48.134;-1.948;2024-01-06T14:53:54;4.13;;;0.70;;
74519;SDS011;63002;48.134;-1.948;2024-01-06T14:56:22;3.35;;;0.75;;
74519;SDS011;63002;48.134;-1.948;2024-01-06T14:58:48;3.13;;;0.70;;
74519;SDS011;63002;48.134;-1.948;2024-01-06T15:01:13;5.20;;;0.60;;
74519;SDS011;63002;48.134;-1.948;2024-01-06T15:03:39;5.13;;;0.70;;
74519;SDS011;63002;48.134;-1.948;2024-01-06T15:06:05;3.53;;;0.60;;
74519;SDS011;63002;48.134;-1.948;2024-01-06T15:08:31;2.72;;;0.57;;
74519;SDS011;63002;48.134;-1.948;2024-01-06T15:10:56;5.60;;;0.97;;
74519;SDS011;63002;48.134;-1.948;2024-01-06T15:13:23;4.85;;;0.95;;
74519;SDS011;63002;48.134;-1.948;2024-01-06T15:15:49;3.55;;;0.80;;
74519;SDS011;63002;48.134;-1.948;2024-01-06T15:18:16;6.60;;;1.00;;
74519;SDS011;63002;48.134;-1.948;2024-01-06T15:20:45;2.40;;;0.55;;
74519;SDS011;63002;48.134;-1.948;2024-01-06T15:23:11;4.30;;;0.90;;
74519;SDS011;63002;48.134;-1.948;2024-01-06T15:25:37;3.67;;;0.50;;
74519;SDS011;63002;48.134;-1.948;2024-01-06T15:28:03;3.17;;;0.70;;
74519;SDS011;63002;48.134;-1.948;2024-01-06T15:30:29;4.20;;;0.50;;
74519;SDS011;63002;48.134;-1.948;2024-01-06T15:32:54;3.28;;;0.60;;
74519;SDS011;63002;48.134;-1.948;2024-01-06T15:35:20;3.22;;;0.75;;
74519;SDS011;63002;48.134;-1.948;2024-01-06T15:37:46;5.93;;;0.70;;
74519;SDS011;63002;48.134;-1.948;2024-01-06T15:40:12;3.38;;;0.50;;
74519;SDS011;63002;48.134;-1.948;2024-01-06T15:42:38;3.47;;;0.77;;
74519;SDS011;63002;48.134;-1.948;2024-01-06T15:45:05;3.33;;;0.75;;
74519;SDS011;63002;48.134;-1.948;2024-01-06T15:47:31;2.47;;;0.43;;
74519;SDS011;63002;48.134;-1.948;2024-01-06T15:49:58;3.20;;;0.63;;
74519;SDS011;63002;48.134;-1.948;2024-01-06T15:52:24;5.38;;;0.60;;
74519;SDS011;63002;48.134;-1.948;2024-01-06T15:54:50;3.05;;;0.60;;
74519;SDS011;63002;48.134;-1.948;2024-01-06T15:57:16;2.63;;;0.63;;
74519;SDS011;63002;48.134;-1.948;2024-01-06T15:59:42;5.53;;;0.50;;
74519;SDS011;63002;48.134;-1.948;2024-01-06T16:02:08;4.25;;;0.68;;
74519;SDS011;63002;48.134;-1.948;2024-01-06T16:04:34;3.63;;;0.70;;
74519;SDS011;63002;48.134;-1.948;2024-01-06T16:07:00;4.35;;;0.65;;
74519;SDS011;63002;48.134;-1.948;2024-01-06T16:09:25;3.97;;;0.50;;
74519;SDS011;63002;48.134;-1.948;2024-01-06T16:11:51;4.35;;;0.57;;
74519;SDS011;63002;48.134;-1.948;2024-01-06T16:14:20;4.43;;;0.60;;
74519;SDS011;63002;48.134;-1.948;2024-01-06T16:16:46;12.75;;;1.90;;
74519;SDS011;63002;48.134;-1.948;2024-01-06T16:19:12;10.88;;;1.70;;
74519;SDS011;63002;48.134;-1.948;2024-01-06T16:21:37;8.15;;;1.15;;
74519;SDS011;63002;48.134;-1.948;2024-01-06T16:24:03;5.88;;;1.00;;
74519;SDS011;63002;48.134;-1.948;2024-01-06T16:26:29;5.93;;;0.90;;
74519;SDS011;63002;48.134;-1.948;2024-01-06T16:28:55;13.38;;;1.30;;
74519;SDS011;63002;48.134;-1.948;2024-01-06T16:31:22;6.28;;;0.95;;
74519;SDS011;63002;48.134;-1.948;2024-01-06T16:33:47;4.27;;;0.97;;
74519;SDS011;63002;48.134;-1.948;2024-01-06T16:36:13;4.82;;;0.90;;
74519;SDS011;63002;48.134;-1.948;2024-01-06T16:38:39;3.90;;;0.70;;
74519;SDS011;63002;48.134;-1.948;2024-01-06T16:41:05;6.45;;;1.10;;
74519;SDS011;63002;48.134;-1.948;2024-01-06T16:43:34;7.37;;;1.07;;
74519;SDS011;63002;48.134;-1.948;2024-01-06T16:46:02;4.85;;;0.77;;
74519;SDS011;63002;48.134;-1.948;2024-01-06T16:48:30;4.03;;;0.80;;
74519;SDS011;63002;48.134;-1.948;2024-01-06T16:50:56;6.47;;;0.90;;
74519;SDS011;63002;48.134;-1.948;2024-01-06T16:53:21;7.07;;;0.70;;
74519;SDS011;63002;48.134;-1.948;2024-01-06T16:55:47;4.07;;;0.60;;
74519;SDS011;63002;48.134;-1.948;2024-01-06T16:58:13;6.07;;;0.70;;
74519;SDS011;63002;48.134;-1.948;2024-01-06T17:00:38;5.87;;;0.97;;
74519;SDS011;63002;48.134;-1.948;2024-01-06T17:03:04;2.80;;;0.70;;
74519;SDS011;63002;48.134;-1.948;2024-01-06T17:05:30;4.30;;;0.75;;
74519;SDS011;63002;48.134;-1.948;2024-01-06T17:07:56;3.90;;;0.60;;
74519;SDS011;63002;48.134;-1.948;2024-01-06T17:10:21;2.58;;;0.50;;
74519;SDS011;63002;48.134;-1.948;2024-01-06T17:12:48;5.13;;;0.90;;
74519;SDS011;63002;48.134;-1.948;2024-01-06T17:15:14;4.50;;;1.00;;
74519;SDS011;63002;48.134;-1.948;2024-01-06T17:17:40;6.15;;;0.90;;
74519;SDS011;63002;48.134;-1.948;2024-01-06T17:20:06;5.10;;;0.67;;
74519;SDS011;63002;48.134;-1.948;2024-01-06T17:22:33;7.22;;;1.35;;
74519;SDS011;63002;48.134;-1.948;2024-01-06T17:24:58;5.40;;;1.20;;
74519;SDS011;63002;48.134;-1.948;2024-01-06T17:27:24;8.33;;;1.70;;
74519;SDS011;63002;48.134;-1.948;2024-01-06T17:29:50;6.50;;;1.55;;
74519;SDS011;63002;48.134;-1.948;2024-01-06T17:32:17;7.38;;;1.30;;
74519;SDS011;63002;48.134;-1.948;2024-01-06T17:34:43;7.53;;;1.48;;
74519;SDS011;63002;48.134;-1.948;2024-01-06T17:37:09;7.03;;;1.40;;
74519;SDS011;63002;48.134;-1.948;2024-01-06T17:39:35;5.97;;;1.20;;
74519;SDS011;63002;48.134;-1.948;2024-01-06T17:42:02;7.63;;;1.33;;
74519;SDS011;63002;48.134;-1.948;2024-01-06T17:44:30;5.53;;;1.13;;
74519;SDS011;63002;48.134;-1.948;2024-01-06T17:46:56;4.60;;;1.20;;
74519;SDS011;63002;48.134;-1.948;2024-01-06T17:49:22;5.18;;;1.23;;
74519;SDS011;63002;48.134;-1.948;2024-01-06T17:51:48;5.53;;;1.50;;
74519;SDS011;63002;48.134;-1.948;2024-01-06T17:54:14;6.40;;;1.63;;
74519;SDS011;63002;48.134;-1.948;2024-01-06T17:56:40;7.43;;;1.85;;
74519;SDS011;63002;48.134;-1.948;2024-01-06T17:59:06;8.55;;;1.95;;
74519;SDS011;63002;48.134;-1.948;2024-01-06T18:01:31;9.80;;;2.07;;
74519;SDS011;63002;48.134;-1.948;2024-01-06T18:03:57;9.45;;;2.03;;
74519;SDS011;63002;48.134;-1.948;2024-01-06T18:06:24;6.93;;;1.83;;
74519;SDS011;63002;48.134;-1.948;2024-01-06T18:08:50;12.55;;;2.00;;
74519;SDS011;63002;48.134;-1.948;2024-01-06T18:11:16;7.22;;;1.90;;
74519;SDS011;63002;48.134;-1.948;2024-01-06T18:13:42;10.13;;;2.03;;
74519;SDS011;63002;48.134;-1.948;2024-01-06T18:16:07;9.07;;;1.90;;
74519;SDS011;63002;48.134;-1.948;2024-01-06T18:18:33;6.70;;;1.73;;
74519;SDS011;63002;48.134;-1.948;2024-01-06T18:20:59;7.60;;;2.05;;
74519;SDS011;63002;48.134;-1.948;2024-01-06T18:23:25;6.57;;;1.63;;
74519;SDS011;63002;48.134;-1.948;2024-01-06T18:25:51;6.43;;;1.40;;
74519;SDS011;63002;48.134;-1.948;2024-01-06T18:28:17;7.32;;;1.75;;
74519;SDS011;63002;48.134;-1.948;2024-01-06T18:30:48;7.82;;;1.92;;
74519;SDS011;63002;48.134;-1.948;2024-01-06T18:33:20;8.13;;;1.77;;
74519;SDS011;63002;48.134;-1.948;2024-01-06T18:35:46;6.82;;;1.75;;
74519;SDS011;63002;48.134;-1.948;2024-01-06T18:38:11;10.00;;;2.20;;
74519;SDS011;63002;48.134;-1.948;2024-01-06T18:40:37;9.07;;;2.40;;
74519;SDS011;63002;48.134;-1.948;2024-01-06T18:43:03;10.50;;;2.07;;
74519;SDS011;63002;48.134;-1.948;2024-01-06T18:45:29;8.63;;;2.10;;
74519;SDS011;63002;48.134;-1.948;2024-01-06T18:47:55;9.83;;;2.07;;
74519;SDS011;63002;48.134;-1.948;2024-01-06T18:50:21;8.48;;;2.00;;
74519;SDS011;63002;48.134;-1.948;2024-01-06T18:52:48;9.90;;;2.10;;
74519;SDS011;63002;48.134;-1.948;2024-01-06T18:55:15;6.22;;;1.92;;
74519;SDS011;63002;48.134;-1.948;2024-01-06T18:57:41;8.38;;;1.98;;
74519;SDS011;63002;48.134;-1.948;2024-01-06T19:00:07;7.50;;;1.83;;
74519;SDS011;63002;48.134;-1.948;2024-01-06T19:02:34;10.02;;;2.17;;
74519;SDS011;63002;48.134;-1.948;2024-01-06T19:05:00;9.52;;;1.83;;
74519;SDS011;63002;48.134;-1.948;2024-01-06T19:07:27;8.87;;;2.07;;
74519;SDS011;63002;48.134;-1.948;2024-01-06T19:09:52;6.22;;;1.85;;
74519;SDS011;63002;48.134;-1.948;2024-01-06T19:12:18;9.25;;;1.90;;
74519;SDS011;63002;48.134;-1.948;2024-01-06T19:14:45;10.52;;;1.92;;
74519;SDS011;63002;48.134;-1.948;2024-01-06T19:17:11;7.63;;;2.17;;
74519;SDS011;63002;48.134;-1.948;2024-01-06T19:19:38;6.75;;;1.63;;
74519;SDS011;63002;48.134;-1.948;2024-01-06T19:22:06;6.97;;;1.73;;
74519;SDS011;63002;48.134;-1.948;2024-01-06T19:24:31;10.18;;;1.95;;
74519;SDS011;63002;48.134;-1.948;2024-01-06T19:26:57;5.93;;;1.60;;
74519;SDS011;63002;48.134;-1.948;2024-01-06T19:29:23;7.95;;;1.90;;
74519;SDS011;63002;48.134;-1.948;2024-01-06T19:31:50;10.83;;;1.90;;
74519;SDS011;63002;48.134;-1.948;2024-01-06T19:34:16;5.15;;;1.67;;
74519;SDS011;63002;48.134;-1.948;2024-01-06T19:36:42;5.88;;;1.50;;
74519;SDS011;63002;48.134;-1.948;2024-01-06T19:39:08;5.75;;;1.48;;
74519;SDS011;63002;48.134;-1.948;2024-01-06T19:41:34;8.10;;;1.52;;
74519;SDS011;63002;48.134;-1.948;2024-01-06T19:44:00;9.88;;;1.33;;
74519;SDS011;63002;48.134;-1.948;2024-01-06T19:46:28;5.85;;;1.83;;
74519;SDS011;63002;48.134;-1.948;2024-01-06T19:48:54;9.05;;;1.60;;
74519;SDS011;63002;48.134;-1.948;2024-01-06T19:51:20;5.83;;;1.50;;
74519;SDS011;63002;48.134;-1.948;2024-01-06T19:53:46;5.28;;;1.60;;
74519;SDS011;63002;48.134;-1.948;2024-01-06T19:56:13;6.28;;;1.45;;
74519;SDS011;63002;48.134;-1.948;2024-01-06T19:58:39;8.40;;;1.30;;
74519;SDS011;63002;48.134;-1.948;2024-01-06T20:01:11;4.73;;;1.20;;
74519;SDS011;63002;48.134;-1.948;2024-01-06T20:03:37;6.43;;;1.40;;
74519;SDS011;63002;48.134;-1.948;2024-01-06T20:06:03;5.57;;;1.25;;
74519;SDS011;63002;48.134;-1.948;2024-01-06T20:08:30;9.30;;;2.00;;
74519;SDS011;63002;48.134;-1.948;2024-01-06T20:10:58;5.75;;;1.35;;
74519;SDS011;63002;48.134;-1.948;2024-01-06T20:13:26;4.30;;;1.08;;
74519;SDS011;63002;48.134;-1.948;2024-01-06T20:15:53;7.35;;;1.27;;
74519;SDS011;63002;48.134;-1.948;2024-01-06T20:18:20;6.72;;;1.35;;
74519;SDS011;63002;48.134;-1.948;2024-01-06T20:20:46;6.70;;;1.27;;
74519;SDS011;63002;48.134;-1.948;2024-01-06T20:23:13;5.57;;;1.30;;
74519;SDS011;63002;48.134;-1.948;2024-01-06T20:25:42;5.65;;;1.20;;
74519;SDS011;63002;48.134;-1.948;2024-01-06T20:28:12;5.50;;;1.20;;
74519;SDS011;63002;48.134;-1.948;2024-01-06T20:30:39;5.63;;;1.17;;
74519;SDS011;63002;48.134;-1.948;2024-01-06T20:33:05;4.22;;;1.30;;
74519;SDS011;63002;48.134;-1.948;2024-01-06T20:35:34;5.57;;;1.10;;
74519;SDS011;63002;48.134;-1.948;2024-01-06T20:38:02;4.25;;;0.98;;